Skip Navigation Links
NOAA logo - Click to go to the NOAA homepage
NOAA's National Weather Service
Alaska Aviation Weather Unit
  NWS logo - Click to go to the NWS homepage
Left Navbar Graphic     12 AKDT = 20 GMT

   
NOAA is celebrating 200 years of science, service, and stewardship. Visit the NOAA 200th celebration Web site to learn more.
USA.gov is the U.S. Government's official Web portal to all Federal, state and local government Web resources and services.
Facebook
NWS on Facebook

Important Change Regarding the AAWU Web Presence

 

Over the last several months, the AAWU has been working to navigate its webpages to a nationally supported server. Security, as well as other needs, have necessitated the change.  We have been given an extension for the site changeover while we diligently work at addressing feedback received. As of July 14, 2017, aawu.arh.noaa.gov will be discontinued. The new AAWU web address is weather.gov/aawu. It is now live and will run in-parallel with the old site until it is discontinued on July 14, 2017. Please continue to send any feedback or questions regarding the new webpages to nws.ar.aawu.webauthors@noaa.gov.  Thank you for your patience during this time of transition.
AAWU Home :: Display TAF Add Bookmark
TAF PAMC 251739Z 2518/2618 22004KT P6SM VCSH FEW015 BKN021 OVC050
      TEMPO 2518/2521 FEW015 SCT019 BKN050
     FM252100 20004KT P6SM -SHRA BKN025
     FM260400 VRB03KT 5SM -SHRA BKN025=
PAMC 251435Z AUTO 23003KT 10SM OVC011 13/11 A2997=

METAR PAMC 251453Z AUTO 22004KT 10SM OVC013 13/11 A2997 RMK AO2 SLP151
     T01280106 58004 TSNO=

PAMC 251529Z AUTO 22003KT 10SM BKN015 BKN019 OVC050 13/10 A2996=

PAMC 251546Z AUTO 22004KT 10SM SCT018 OVC050 13/10 A2996=

METAR PAMC 251553Z AUTO 22004KT 10SM FEW015 BKN019 OVC050 13/10 A2996
     RMK AO2 SLP150 T01280100 TSNO=

METAR PAMC 251653Z 17003KT 10SM FEW010 BKN021 OVC055 13/10 A2996 RMK AO2
     SLP147 T01330100=

METAR PAMC 251753Z 17006KT 10SM OVC020 13/09 A2995 RMK SLP145 T01330094
     10133 20122 58006 VIA AUTODIAL=

METAR PAMC 251853Z 20005KT 10SM BKN019 OVC025 14/09 A2995 RMK AO2 SLP144
     T01390094=

METAR PAMC 251953Z 22004KT 10SM OVC022 14/09 A2994 RMK AO2 SLP141
     T01440094=


NOAA's National Weather Service
Alaska Aviation Weather Unit
6930 Sand Lake Road
Anchorage, AK 99502-1845
Disclaimer
Credits
Glossary
Privacy Policy
About Us
Career Opportunities
Contact AAWU Internet Services Site last modified: April, 17th 2012